Time;durP1;ratioP1;P1;durP2;ratioP2;P2;SDS_P1;SDS_P2;PMS_P1;PMS_P2;Temp;Humidity;BMP_temperature;BMP_pressure;BME280_temperature;BME280_humidity;BME280_pressure;Samples;Min_cycle;Max_cycle;Signal;HPM_P1;HPM_P2
2022/11/10 00:00:35;;;;;;;0.30;0.30;;;;;;;;;;4086011;29;20492;-34
2022/11/10 00:02:59;;;;;;;2.03;0.57;;;;;;;;;;4079803;29;20514;-34
2022/11/10 00:05:19;;;;;;;0.63;0.20;;;;;;;;;;4094874;29;20087;-34
2022/11/10 00:08:02;;;;;;;0.75;0.32;;;;;;;;;;4082335;29;20059;-34
2022/11/10 00:10:23;;;;;;;0.50;0.30;;;;;;;;;;4082099;29;20182;-34
2022/11/10 00:12:43;;;;;;;0.65;0.43;;;;;;;;;;4083516;29;20555;-34
2022/11/10 00:17:41;;;;;;;0.30;0.20;;;;;;;;;;4094165;29;20055;-34
2022/11/10 00:20:02;;;;;;;0.50;0.30;;;;;;;;;;4086042;29;20593;-34
2022/11/10 00:22:40;;;;;;;0.22;0.22;;;;;;;;;;4085491;29;20399;-34
2022/11/10 00:25:00;;;;;;;0.47;0.40;;;;;;;;;;4070566;29;20063;-34
2022/11/10 00:27:38;;;;;;;0.65;0.35;;;;;;;;;;4085147;29;20054;-33
2022/11/10 00:29:58;;;;;;;0.70;0.32;;;;;;;;;;4084732;29;20055;-34
2022/11/10 00:32:18;;;;;;;0.60;0.30;;;;;;;;;;4084625;29;20060;-34
2022/11/10 00:34:38;;;;;;;0.45;0.30;;;;;;;;;;4084713;29;20337;-34
2022/11/10 00:37:16;;;;;;;0.57;0.43;;;;;;;;;;4093703;29;20050;-34
2022/11/10 00:39:37;;;;;;;0.70;0.40;;;;;;;;;;4099610;29;20118;-34
2022/11/10 00:41:57;;;;;;;0.70;0.25;;;;;;;;;;4084992;29;20055;-35
2022/11/10 00:44:17;;;;;;;0.45;0.30;;;;;;;;;;4084881;29;20099;-34
2022/11/10 00:46:54;;;;;;;0.65;0.40;;;;;;;;;;4081071;29;20069;-35
2022/11/10 00:49:14;;;;;;;0.95;0.40;;;;;;;;;;4087529;29;20055;-34
2022/11/10 00:51:34;;;;;;;0.60;0.25;;;;;;;;;;4073731;29;20063;-34
2022/11/10 00:53:54;;;;;;;0.63;0.30;;;;;;;;;;4084715;29;20499;-35
2022/11/10 00:56:32;;;;;;;0.90;0.30;;;;;;;;;;4074005;29;20054;-34
2022/11/10 00:59:11;;;;;;;0.50;0.30;;;;;;;;;;4084607;29;20048;-34
2022/11/10 01:01:31;;;;;;;0.50;0.38;;;;;;;;;;4073273;29;20051;-34
2022/11/10 01:03:51;;;;;;;0.60;0.43;;;;;;;;;;4094411;29;20062;-34
2022/11/10 01:06:13;;;;;;;0.30;0.30;;;;;;;;;;4084652;29;20062;-34
2022/11/10 01:08:33;;;;;;;0.60;0.35;;;;;;;;;;4084584;29;20372;-34
2022/11/10 01:11:01;;;;;;;0.68;0.40;;;;;;;;;;4069999;29;20099;-34
2022/11/10 01:13:20;;;;;;;0.22;0.20;;;;;;;;;;4084389;29;20476;-34
2022/11/10 01:15:41;;;;;;;0.30;0.30;;;;;;;;;;4084374;29;20063;-34
2022/11/10 01:18:01;;;;;;;0.65;0.52;;;;;;;;;;4083023;29;20166;-34
2022/11/10 01:20:21;;;;;;;1.00;0.20;;;;;;;;;;4067461;29;20056;-34
2022/11/10 01:22:42;;;;;;;0.40;0.15;;;;;;;;;;4071380;29;20064;-34
2022/11/10 01:25:02;;;;;;;0.50;0.30;;;;;;;;;;4084108;29;20055;-36
2022/11/10 01:27:21;;;;;;;;;;;;;;;;;;4084544;29;20055;-34
2022/11/10 01:29:41;;;;;;;0.65;0.40;;;;;;;;;;4084222;29;19930;-34
2022/11/10 01:32:01;;;;;;;0.52;0.40;;;;;;;;;;4083643;29;20096;-34
2022/11/10 01:34:20;;;;;;;0.13;0.13;;;;;;;;;;4076858;29;20388;-34
2022/11/10 01:36:40;;;;;;;;;;;;;;;;;;4090550;29;20412;-34
2022/11/10 01:39:00;;;;;;;0.50;0.35;;;;;;;;;;4083413;29;20302;-35
2022/11/10 01:41:20;;;;;;;;;;;;;;;;;;4084446;29;20059;-34
2022/11/10 01:43:40;;;;;;;;;;;;;;;;;;4084446;29;20375;-34
2022/11/10 01:46:01;;;;;;;0.70;0.38;;;;;;;;;;4083907;29;20048;-34
2022/11/10 01:48:43;;;;;;;0.47;0.30;;;;;;;;;;4083728;29;20055;-35
2022/11/10 01:51:11;;;;;;;0.80;0.30;;;;;;;;;;4072747;29;20126;-34
2022/11/10 01:53:31;;;;;;;0.40;0.30;;;;;;;;;;4083750;29;20062;-36
2022/11/10 01:55:52;;;;;;;0.60;0.28;;;;;;;;;;4062648;29;20103;-34
2022/11/10 01:58:14;;;;;;;0.32;0.30;;;;;;;;;;4089396;29;20169;-34
2022/11/10 02:00:33;;;;;;;0.55;0.30;;;;;;;;;;4069030;29;20104;-34
2022/11/10 02:03:02;;;;;;;0.80;0.47;;;;;;;;;;4082938;29;20059;-34
2022/11/10 02:05:22;;;;;;;0.30;0.20;;;;;;;;;;4083327;29;20058;-34
2022/11/10 02:07:43;;;;;;;0.68;0.40;;;;;;;;;;4083563;29;20127;-34
2022/11/10 02:10:04;;;;;;;0.30;0.20;;;;;;;;;;4083672;29;20055;-34
2022/11/10 02:12:36;;;;;;;0.40;0.30;;;;;;;;;;4093770;29;20067;-34
2022/11/10 02:14:57;;;;;;;0.50;0.30;;;;;;;;;;4083621;29;20110;-36
2022/11/10 02:17:18;;;;;;;0.30;0.20;;;;;;;;;;4058572;29;20144;-34
2022/11/10 02:19:38;;;;;;;;;;;;;;;;;;4069437;29;20140;-35
2022/11/10 02:21:58;;;;;;;0.35;0.20;;;;;;;;;;4083205;29;20302;-34
2022/11/10 02:24:18;;;;;;;0.50;0.22;;;;;;;;;;4083617;29;20055;-35
2022/11/10 02:26:46;;;;;;;0.60;0.30;;;;;;;;;;4084017;29;20463;-34
2022/11/10 02:29:05;;;;;;;0.45;0.30;;;;;;;;;;4084838;29;20122;-34
2022/11/10 02:31:25;;;;;;;0.55;0.40;;;;;;;;;;4083447;29;20059;-34
2022/11/10 02:33:45;;;;;;;0.32;0.30;;;;;;;;;;4068799;29;20111;-34
2022/11/10 02:36:05;;;;;;;0.30;0.20;;;;;;;;;;4082522;29;20056;-34
2022/11/10 02:38:24;;;;;;;0.30;0.20;;;;;;;;;;4081826;29;20510;-34
2022/11/10 02:40:44;;;;;;;0.20;0.20;;;;;;;;;;4068739;29;20067;-34
2022/11/10 02:43:06;;;;;;;0.50;0.30;;;;;;;;;;4081900;29;20134;-34
2022/11/10 02:45:26;;;;;;;0.32;0.30;;;;;;;;;;4082965;29;20123;-34
2022/11/10 02:47:46;;;;;;;;;;;;;;;;;;4095741;29;20063;-34
2022/11/10 02:50:06;;;;;;;0.20;0.20;;;;;;;;;;4083026;29;19931;-34
2022/11/10 02:52:26;;;;;;;1.65;0.50;;;;;;;;;;4094058;29;20062;-34
2022/11/10 02:54:46;;;;;;;0.40;0.40;;;;;;;;;;4070861;29;20067;-34
2022/11/10 02:57:05;;;;;;;1.10;0.35;;;;;;;;;;4082770;29;20166;-33
2022/11/10 02:59:25;;;;;;;0.50;0.40;;;;;;;;;;4082534;29;20128;-35
2022/11/10 03:01:45;;;;;;;0.35;0.30;;;;;;;;;;4082001;29;20059;-34
2022/11/10 03:04:05;;;;;;;;;;;;;;;;;;4083114;29;20063;-35
2022/11/10 03:06:25;;;;;;;0.82;0.30;;;;;;;;;;4077672;29;20347;-34
2022/11/10 03:08:45;;;;;;;0.22;0.20;;;;;;;;;;4082303;29;20099;-34
2022/11/10 03:11:05;;;;;;;0.68;0.30;;;;;;;;;;4068333;29;20121;-34
2022/11/10 03:13:25;;;;;;;0.50;0.30;;;;;;;;;;4082612;29;20067;-34
2022/11/10 03:15:46;;;;;;;0.38;0.30;;;;;;;;;;4082677;29;20062;-37
2022/11/10 03:18:06;;;;;;;0.65;0.40;;;;;;;;;;4082089;29;20060;-35
2022/11/10 03:20:25;;;;;;;0.30;0.17;;;;;;;;;;4079230;29;20083;-34
2022/11/10 03:22:46;;;;;;;0.65;0.32;;;;;;;;;;4070214;29;20130;-36
2022/11/10 03:25:07;;;;;;;0.65;0.25;;;;;;;;;;4082564;29;20064;-34
2022/11/10 03:27:26;;;;;;;1.40;0.28;;;;;;;;;;4082623;29;20056;-34
2022/11/10 03:29:46;;;;;;;;;;;;;;;;;;4083019;29;20110;-34
2022/11/10 03:32:06;;;;;;;0.90;0.28;;;;;;;;;;4081960;29;19930;-34
2022/11/10 03:34:26;;;;;;;0.63;0.30;;;;;;;;;;4071714;29;20486;-34
2022/11/10 03:36:45;;;;;;;0.28;0.20;;;;;;;;;;4082310;29;20063;-34
2022/11/10 03:39:05;;;;;;;0.30;0.20;;;;;;;;;;4081912;29;20539;-34
2022/11/10 03:41:25;;;;;;;0.30;0.30;;;;;;;;;;4081980;29;20056;-33
2022/11/10 03:43:44;;;;;;;0.40;0.40;;;;;;;;;;4082782;29;20150;-35
2022/11/10 03:46:05;;;;;;;0.70;0.43;;;;;;;;;;4082365;29;20055;-34
2022/11/10 03:48:24;;;;;;;0.38;0.30;;;;;;;;;;4092825;29;20051;-34
2022/11/10 03:50:44;;;;;;;0.40;0.30;;;;;;;;;;4069468;29;20071;-33
2022/11/10 03:53:04;;;;;;;0.22;0.20;;;;;;;;;;4065104;29;20453;-34
2022/11/10 03:55:24;;;;;;;;;;;;;;;;;;4082295;29;20047;-34
2022/11/10 03:57:44;;;;;;;0.20;0.20;;;;;;;;;;4082054;29;19978;-34
2022/11/10 04:00:04;;;;;;;0.20;0.20;;;;;;;;;;4082282;29;20099;-34
2022/11/10 04:02:24;;;;;;;0.35;0.30;;;;;;;;;;4074637;29;20055;-34
2022/11/10 04:10:02;;;;;;;1.23;0.30;;;;;;;;;;4082096;29;20139;-34
2022/11/10 04:17:40;;;;;;;0.57;0.32;;;;;;;;;;4081830;29;20059;-34
2022/11/10 04:20:01;;;;;;;0.57;0.38;;;;;;;;;;4081766;29;20194;-33
2022/11/10 04:23:25;;;;;;;0.50;0.30;;;;;;;;;;4064948;29;20451;-34
2022/11/10 04:25:01;;;;;;;0.30;0.22;;;;;;;;;;4081138;29;20463;-34
2022/11/10 04:27:21;;;;;;;0.57;0.40;;;;;;;;;;4082234;29;20060;-34
2022/11/10 04:29:41;;;;;;;0.35;0.30;;;;;;;;;;4081818;29;20052;-34
2022/11/10 04:32:00;;;;;;;;;;;;;;;;;;4087617;29;20059;-34
2022/11/10 04:34:20;;;;;;;0.45;0.10;;;;;;;;;;4086705;29;19930;-35
2022/11/10 04:36:41;;;;;;;0.63;0.25;;;;;;;;;;4073082;29;20066;-34
2022/11/10 04:39:03;;;;;;;1.33;0.32;;;;;;;;;;4088598;29;20404;-34
2022/11/10 04:41:25;;;;;;;0.75;0.30;;;;;;;;;;4081593;29;20159;-34
2022/11/10 04:43:44;;;;;;;0.80;0.40;;;;;;;;;;4082101;29;20063;-34
2022/11/10 04:46:04;;;;;;;;;;;;;;;;;;4095250;29;20055;-34
2022/11/10 04:48:25;;;;;;;0.50;0.32;;;;;;;;;;4081810;29;20374;-34
2022/11/10 04:50:44;;;;;;;0.57;0.30;;;;;;;;;;4081969;29;20098;-34
2022/11/10 04:53:04;;;;;;;0.82;0.28;;;;;;;;;;4081852;29;20103;-34
2022/11/10 04:55:25;;;;;;;0.30;0.30;;;;;;;;;;4081713;29;20060;-34
2022/11/10 04:57:44;;;;;;;0.43;0.30;;;;;;;;;;4081480;29;20384;-34
2022/11/10 05:00:06;;;;;;;;;;;;;;;;;;4085222;29;20060;-34
2022/11/10 05:02:26;;;;;;;0.20;0.20;;;;;;;;;;4083694;29;19938;-34
2022/11/10 05:04:46;;;;;;;;;;;;;;;;;;4088177;29;20239;-34
2022/11/10 05:07:05;;;;;;;0.60;0.22;;;;;;;;;;4100528;29;19981;-35
2022/11/10 05:09:25;;;;;;;;;;;;;;;;;;4083943;29;20051;-35
2022/11/10 05:11:45;;;;;;;0.30;0.20;;;;;;;;;;4091836;29;19926;-35
2022/11/10 05:14:05;;;;;;;0.43;0.30;;;;;;;;;;4073054;29;20052;-34
2022/11/10 05:16:24;;;;;;;0.30;0.20;;;;;;;;;;4084216;29;20058;-34
2022/11/10 05:18:45;;;;;;;0.30;0.22;;;;;;;;;;4067396;29;20052;-34
2022/11/10 05:21:04;;;;;;;0.45;0.20;;;;;;;;;;4069886;29;20062;-34
2022/11/10 05:23:37;;;;;;;0.57;0.20;;;;;;;;;;4067515;29;20060;-34
2022/11/10 05:25:56;;;;;;;0.75;0.20;;;;;;;;;;4086838;29;20434;-34
2022/11/10 05:28:16;;;;;;;0.55;0.30;;;;;;;;;;4092062;29;20063;-34
2022/11/10 05:30:36;;;;;;;;;;;;;;;;;;4084458;29;20467;-35
2022/11/10 05:32:56;;;;;;;0.20;0.20;;;;;;;;;;4066794;29;20001;-34
2022/11/10 05:35:15;;;;;;;0.30;0.20;;;;;;;;;;4084384;29;20055;-34
2022/11/10 05:37:38;;;;;;;;;;;;;;;;;;4072918;29;20114;-35
2022/11/10 05:39:57;;;;;;;0.47;0.22;;;;;;;;;;4083988;29;19923;-34
2022/11/10 05:42:17;;;;;;;0.35;0.20;;;;;;;;;;4083717;29;20064;-34
2022/11/10 05:44:37;;;;;;;;;;;;;;;;;;4084677;29;20131;-34
2022/11/10 05:46:57;;;;;;;0.75;0.30;;;;;;;;;;4081275;29;19927;-34
2022/11/10 05:49:16;;;;;;;0.98;0.30;;;;;;;;;;4084079;29;20078;-34
2022/11/10 05:51:36;;;;;;;0.30;0.30;;;;;;;;;;4069541;29;20104;-34
2022/11/10 05:53:56;;;;;;;0.55;0.25;;;;;;;;;;4083779;29;20715;-35
2022/11/10 05:56:16;;;;;;;0.60;0.30;;;;;;;;;;4091666;29;20067;-35
2022/11/10 05:58:35;;;;;;;0.20;0.20;;;;;;;;;;4072008;29;20063;-35
2022/11/10 06:00:56;;;;;;;0.63;0.30;;;;;;;;;;4081573;29;20059;-34
2022/11/10 06:03:17;;;;;;;0.60;0.40;;;;;;;;;;4080949;29;20095;-34
2022/11/10 06:05:38;;;;;;;0.65;0.30;;;;;;;;;;4069097;29;20055;-35
2022/11/10 06:07:57;;;;;;;0.35;0.28;;;;;;;;;;4078814;29;20091;-34
2022/11/10 06:10:17;;;;;;;;;;;;;;;;;;4073320;29;20562;-36
2022/11/10 06:12:37;;;;;;;;;;;;;;;;;;4066692;29;19959;-34
2022/11/10 06:14:57;;;;;;;1.00;0.38;;;;;;;;;;4070876;29;19939;-34
2022/11/10 06:17:17;;;;;;;;;;;;;;;;;;4065300;29;20460;-33
2022/11/10 06:19:37;;;;;;;0.60;0.30;;;;;;;;;;4080501;29;19933;-35
2022/11/10 06:21:57;;;;;;;0.55;0.30;;;;;;;;;;4077974;29;20102;-34
2022/11/10 06:24:17;;;;;;;1.00;0.30;;;;;;;;;;4073300;29;20055;-34
2022/11/10 06:26:37;;;;;;;;;;;;;;;;;;4063875;29;20516;-36
2022/11/10 06:28:57;;;;;;;0.68;0.25;;;;;;;;;;4074870;29;19931;-34
2022/11/10 06:31:16;;;;;;;6.22;0.65;;;;;;;;;;4085798;29;20067;-36
2022/11/10 06:33:36;;;;;;;2.83;0.47;;;;;;;;;;4079653;29;20056;-34
2022/11/10 06:35:56;;;;;;;0.38;0.20;;;;;;;;;;4062315;29;20116;-35
2022/11/10 06:38:16;;;;;;;0.77;0.30;;;;;;;;;;4076677;29;20550;-35
2022/11/10 06:40:36;;;;;;;0.45;0.20;;;;;;;;;;4078019;29;20126;-34
2022/11/10 06:42:56;;;;;;;;;;;;;;;;;;4076276;29;20055;-35
2022/11/10 06:45:17;;;;;;;1.50;0.40;;;;;;;;;;4073686;29;20030;-34
2022/11/10 06:47:37;;;;;;;0.88;0.30;;;;;;;;;;4074855;29;20111;-34
2022/11/10 06:49:56;;;;;;;;;;;;;;;;;;4080605;29;20056;-35
2022/11/10 06:52:16;;;;;;;0.70;0.50;;;;;;;;;;4074947;29;19931;-35
2022/11/10 06:54:36;;;;;;;;;;;;;;;;;;4072924;29;20059;-35
2022/11/10 06:56:56;;;;;;;0.57;0.30;;;;;;;;;;4074324;29;19927;-35
2022/11/10 06:59:16;;;;;;;0.60;0.32;;;;;;;;;;4072791;29;20048;-34
2022/11/10 07:01:36;;;;;;;0.47;0.30;;;;;;;;;;4076334;29;20056;-35
2022/11/10 07:03:56;;;;;;;0.77;0.40;;;;;;;;;;4069380;29;20095;-34
2022/11/10 07:06:16;;;;;;;1.10;0.30;;;;;;;;;;4073819;29;21841;-36
2022/11/10 07:08:36;;;;;;;0.50;0.30;;;;;;;;;;4053427;29;20059;-34
2022/11/10 07:10:56;;;;;;;2.65;0.55;;;;;;;;;;4069045;29;21286;-34
2022/11/10 07:13:16;;;;;;;0.40;0.32;;;;;;;;;;4070635;29;20055;-36
2022/11/10 07:15:36;;;;;;;0.70;0.60;;;;;;;;;;4069453;29;20059;-36
2022/11/10 07:17:56;;;;;;;0.30;0.20;;;;;;;;;;4071525;29;20448;-34
2022/11/10 07:20:16;;;;;;;;;;;;;;;;;;4071447;29;20051;-34
2022/11/10 07:22:36;;;;;;;0.30;0.20;;;;;;;;;;4071720;29;19948;-35
2022/11/10 07:24:56;;;;;;;1.17;0.35;;;;;;;;;;4069900;29;20060;-36
2022/11/10 07:27:16;;;;;;;0.77;0.40;;;;;;;;;;4062628;29;20224;-36
2022/11/10 07:29:36;;;;;;;0.30;0.30;;;;;;;;;;4063818;29;20055;-38
2022/11/10 07:31:56;;;;;;;0.50;0.35;;;;;;;;;;4046748;29;20943;-38
2022/11/10 07:34:16;;;;;;;;;;;;;;;;;;4062847;29;20142;-35
2022/11/10 07:36:36;;;;;;;0.57;0.32;;;;;;;;;;4058989;29;19938;-35
2022/11/10 07:38:56;;;;;;;0.40;0.30;;;;;;;;;;4044832;29;20102;-35
2022/11/10 07:41:17;;;;;;;1.08;0.40;;;;;;;;;;4068467;29;20067;-37
2022/11/10 07:43:37;;;;;;;0.50;0.50;;;;;;;;;;4060892;29;20564;-35
2022/11/10 07:45:56;;;;;;;1.92;0.30;;;;;;;;;;4066050;29;20313;-36
2022/11/10 07:48:17;;;;;;;0.55;0.30;;;;;;;;;;4059710;29;20063;-37
2022/11/10 07:50:37;;;;;;;1.38;0.38;;;;;;;;;;4064848;29;20438;-35
2022/11/10 07:53:03;;;;;;;0.73;0.50;;;;;;;;;;4057123;29;20059;-36
2022/11/10 07:55:23;;;;;;;0.47;0.30;;;;;;;;;;4055004;29;20067;-35
2022/11/10 07:57:43;;;;;;;;;;;;;;;;;;4070045;29;20103;-36
2022/11/10 08:00:03;;;;;;;;;;;;;;;;;;4052721;29;19926;-38
2022/11/10 08:02:23;;;;;;;1.13;0.50;;;;;;;;;;4044653;29;19934;-37
2022/11/10 08:04:44;;;;;;;0.80;0.43;;;;;;;;;;4040508;29;20083;-36
2022/11/10 08:07:04;;;;;;;0.38;0.30;;;;;;;;;;4052117;29;20126;-35
2022/11/10 08:09:23;;;;;;;2.55;0.40;;;;;;;;;;4050819;29;20194;-37
2022/11/10 08:11:44;;;;;;;4.78;0.47;;;;;;;;;;4051530;29;20056;-36
2022/11/10 08:14:03;;;;;;;1.50;0.50;;;;;;;;;;4061478;29;20091;-35
2022/11/10 08:16:23;;;;;;;0.52;0.30;;;;;;;;;;4060715;29;20067;-37
2022/11/10 08:18:43;;;;;;;;;;;;;;;;;;4061900;29;20767;-34
2022/11/10 08:21:04;;;;;;;1.40;0.40;;;;;;;;;;4059310;29;19994;-35
2022/11/10 08:23:24;;;;;;;1.15;0.40;;;;;;;;;;4062905;29;20586;-35
2022/11/10 08:25:45;;;;;;;0.93;0.30;;;;;;;;;;4049897;29;20086;-37
2022/11/10 08:28:11;;;;;;;0.60;0.25;;;;;;;;;;4043729;29;20060;-38
2022/11/10 08:30:32;;;;;;;0.88;0.32;;;;;;;;;;4046484;29;20132;-38
2022/11/10 08:32:54;;;;;;;0.95;0.40;;;;;;;;;;4052735;29;20068;-38
2022/11/10 08:35:14;;;;;;;0.50;0.40;;;;;;;;;;4062868;29;20052;-38
2022/11/10 08:37:34;;;;;;;1.42;0.50;;;;;;;;;;4062736;29;20063;-37
2022/11/10 08:39:53;;;;;;;0.85;0.40;;;;;;;;;;4054699;29;20507;-39
2022/11/10 08:42:14;;;;;;;1.50;0.47;;;;;;;;;;4052453;29;20063;-38
2022/11/10 08:44:33;;;;;;;0.85;0.38;;;;;;;;;;4059045;29;20059;-38
2022/11/10 08:46:54;;;;;;;3.47;0.52;;;;;;;;;;4040081;29;20055;-37
2022/11/10 08:49:13;;;;;;;2.17;0.40;;;;;;;;;;4059603;29;20055;-36
2022/11/10 08:51:33;;;;;;;0.30;0.30;;;;;;;;;;4037963;29;20550;-40
2022/11/10 08:53:53;;;;;;;3.92;0.30;;;;;;;;;;4060126;29;20281;-37
2022/11/10 08:56:13;;;;;;;;;;;;;;;;;;4051525;29;20063;-39
2022/11/10 08:58:33;;;;;;;1.02;0.50;;;;;;;;;;4059356;29;20001;-37
2022/11/10 09:00:55;;;;;;;0.77;0.30;;;;;;;;;;4051314;29;20059;-35
2022/11/10 09:03:20;;;;;;;0.50;0.35;;;;;;;;;;4058987;29;20059;-37
2022/11/10 09:05:40;;;;;;;2.03;0.60;;;;;;;;;;4038690;29;20087;-37
2022/11/10 09:08:01;;;;;;;0.90;0.40;;;;;;;;;;4061078;29;20114;-36
2022/11/10 09:10:21;;;;;;;1.13;0.30;;;;;;;;;;4061503;29;20154;-38
2022/11/10 09:12:41;;;;;;;1.17;0.40;;;;;;;;;;4035141;29;20108;-40
2022/11/10 09:15:01;;;;;;;;;;;;;;;;;;4058384;29;20475;-38
2022/11/10 09:17:21;;;;;;;1.15;0.50;;;;;;;;;;4058897;29;19930;-36
2022/11/10 09:19:40;;;;;;;;;;;;;;;;;;4060254;29;20055;-36
2022/11/10 09:22:00;;;;;;;0.75;0.40;;;;;;;;;;4058725;29;19931;-37
2022/11/10 09:24:20;;;;;;;;;;;;;;;;;;4063422;29;20856;-37
2022/11/10 09:26:44;;;;;;;1.17;0.95;;;;;;;;;;4062837;29;19930;-37
2022/11/10 09:29:03;;;;;;;0.68;0.35;;;;;;;;;;4061797;29;20368;-36
2022/11/10 09:31:24;;;;;;;0.52;0.35;;;;;;;;;;4059788;29;20064;-36
2022/11/10 09:33:44;;;;;;;1.10;0.68;;;;;;;;;;4042139;29;20059;-39
2022/11/10 09:36:05;;;;;;;0.85;0.40;;;;;;;;;;4058594;29;20070;-38
2022/11/10 09:38:25;;;;;;;0.75;0.55;;;;;;;;;;4056654;29;20643;-37
2022/11/10 09:41:01;;;;;;;;;;;;;;;;;;4061137;29;20111;-35
2022/11/10 09:43:47;;;;;;;0.40;0.30;;;;;;;;;;4059072;29;19965;-39
2022/11/10 09:46:22;;;;;;;1.30;0.30;;;;;;;;;;4059498;29;20060;-39
2022/11/10 09:48:47;;;;;;;1.05;0.60;;;;;;;;;;4038890;29;20152;-37
2022/11/10 09:51:11;;;;;;;1.60;0.60;;;;;;;;;;4027904;29;20060;-38
2022/11/10 09:53:51;;;;;;;0.95;0.35;;;;;;;;;;4037962;29;20055;-39
2022/11/10 09:56:17;;;;;;;0.60;0.30;;;;;;;;;;4056699;29;20430;-38
2022/11/10 09:58:40;;;;;;;0.88;0.40;;;;;;;;;;4033550;29;20063;-37
2022/11/10 10:01:26;;;;;;;1.17;0.40;;;;;;;;;;4037194;29;20950;-38
2022/11/10 10:03:51;;;;;;;1.05;0.50;;;;;;;;;;4053189;29;20063;-36
2022/11/10 10:06:16;;;;;;;0.50;0.40;;;;;;;;;;4053031;29;20689;-38
2022/11/10 10:08:58;;;;;;;1.25;0.52;;;;;;;;;;4056431;29;20055;-39
2022/11/10 10:11:54;;;;;;;0.88;0.35;;;;;;;;;;4061881;29;20111;-37
2022/11/10 10:14:38;;;;;;;0.28;0.20;;;;;;;;;;4049475;29;20056;-38
2022/11/10 10:17:29;;;;;;;0.65;0.47;;;;;;;;;;4057810;29;20511;-38
2022/11/10 10:19:52;;;;;;;1.67;0.30;;;;;;;;;;4050145;29;20063;-36
2022/11/10 10:22:39;;;;;;;1.35;0.40;;;;;;;;;;4058243;29;20059;-39
2022/11/10 10:25:02;;;;;;;1.25;0.60;;;;;;;;;;4049072;29;20059;-39
2022/11/10 10:27:25;;;;;;;0.73;0.50;;;;;;;;;;4057415;29;20068;-38
2022/11/10 10:29:46;;;;;;;1.35;0.40;;;;;;;;;;4054303;29;20059;-36
2022/11/10 10:32:10;;;;;;;2.08;0.40;;;;;;;;;;4061978;29;21378;-37
2022/11/10 10:34:33;;;;;;;0.90;0.50;;;;;;;;;;4063869;29;20063;-36
2022/11/10 10:36:53;;;;;;;0.82;0.68;;;;;;;;;;4055117;29;20443;-38
2022/11/10 10:39:21;;;;;;;0.73;0.32;;;;;;;;;;4049321;29;20132;-38
2022/11/10 10:41:44;;;;;;;0.90;0.60;;;;;;;;;;4062250;29;20067;-38
2022/11/10 10:44:18;;;;;;;0.47;0.25;;;;;;;;;;4065015;29;20059;-37
2022/11/10 10:46:44;;;;;;;2.42;0.45;;;;;;;;;;4061054;29;20748;-36
2022/11/10 10:49:18;;;;;;;0.75;0.30;;;;;;;;;;4052394;29;20055;-35
2022/11/10 10:51:38;;;;;;;2.35;0.63;;;;;;;;;;4056814;29;20055;-38
2022/11/10 10:53:58;;;;;;;1.13;0.30;;;;;;;;;;4065239;29;20089;-37
2022/11/10 10:56:21;;;;;;;0.60;0.38;;;;;;;;;;4048964;29;20064;-37
2022/11/10 10:58:53;;;;;;;0.93;0.50;;;;;;;;;;4047493;29;20143;-37
2022/11/10 11:01:16;;;;;;;0.60;0.35;;;;;;;;;;4058779;29;20071;-38
2022/11/10 11:03:40;;;;;;;0.93;0.40;;;;;;;;;;4051510;29;20064;-36
2022/11/10 11:06:05;;;;;;;0.93;0.30;;;;;;;;;;4027162;29;20059;-37
2022/11/10 11:08:25;;;;;;;0.98;0.55;;;;;;;;;;4062110;29;22271;-37
2022/11/10 11:10:46;;;;;;;0.70;0.40;;;;;;;;;;4048518;29;20520;-38
2022/11/10 11:13:22;;;;;;;;;;;;;;;;;;4059385;29;20070;-40
2022/11/10 11:15:56;;;;;;;2.65;0.38;;;;;;;;;;4065953;29;19938;-38
2022/11/10 11:18:18;;;;;;;0.75;0.40;;;;;;;;;;4068956;29;20504;-40
2022/11/10 11:21:09;;;;;;;2.25;0.40;;;;;;;;;;4064480;29;20062;-38
2022/11/10 11:23:50;;;;;;;0.90;0.28;;;;;;;;;;4060167;29;20060;-39
2022/11/10 11:26:18;;;;;;;1.35;0.38;;;;;;;;;;4062003;29;20063;-38
2022/11/10 11:28:56;;;;;;;1.00;0.40;;;;;;;;;;4058845;29;20107;-39
2022/11/10 11:31:35;;;;;;;0.90;0.50;;;;;;;;;;4067645;29;21755;-38
2022/11/10 11:34:11;;;;;;;3.13;0.63;;;;;;;;;;4058323;29;20507;-38
2022/11/10 11:36:45;;;;;;;1.13;0.50;;;;;;;;;;4055821;29;20060;-38
2022/11/10 11:39:39;;;;;;;0.80;0.50;;;;;;;;;;4052974;29;20361;-38
2022/11/10 11:42:24;;;;;;;1.55;0.40;;;;;;;;;;4058697;29;20055;-37
2022/11/10 11:45:06;;;;;;;0.52;0.30;;;;;;;;;;4060729;29;20047;-38
2022/11/10 11:47:32;;;;;;;0.30;0.20;;;;;;;;;;4061691;29;20150;-38
2022/11/10 11:50:02;;;;;;;0.90;0.40;;;;;;;;;;4055734;29;20051;-37
2022/11/10 11:52:27;;;;;;;1.63;0.60;;;;;;;;;;4057573;29;20055;-40
2022/11/10 11:55:16;;;;;;;1.10;0.40;;;;;;;;;;4043164;29;20389;-37
2022/11/10 11:57:48;;;;;;;2.10;0.55;;;;;;;;;;4051988;29;20115;-37
2022/11/10 12:00:18;;;;;;;1.10;0.77;;;;;;;;;;4055310;29;20083;-38
2022/11/10 12:03:08;;;;;;;1.05;0.40;;;;;;;;;;4054105;29;20792;-39
2022/11/10 12:05:42;;;;;;;0.40;0.30;;;;;;;;;;4058914;29;20944;-38
2022/11/10 12:08:22;;;;;;;0.75;0.30;;;;;;;;;;4058663;29;20060;-39
2022/11/10 12:10:45;;;;;;;1.17;0.38;;;;;;;;;;4058352;29;20507;-39
2022/11/10 12:13:30;;;;;;;0.63;0.38;;;;;;;;;;4059325;29;20119;-38
2022/11/10 12:16:01;;;;;;;1.38;0.57;;;;;;;;;;4056624;29;20059;-38
2022/11/10 12:18:31;;;;;;;1.92;0.20;;;;;;;;;;4063111;29;20059;-38
2022/11/10 12:21:00;;;;;;;0.60;0.50;;;;;;;;;;4064845;29;20114;-38
2022/11/10 12:23:52;;;;;;;0.50;0.30;;;;;;;;;;4066419;29;20070;-38
2022/11/10 12:26:38;;;;;;;2.10;0.50;;;;;;;;;;4058179;29;20188;-39
2022/11/10 12:29:10;;;;;;;0.88;0.40;;;;;;;;;;4062945;29;20111;-39
2022/11/10 12:31:33;;;;;;;1.15;0.43;;;;;;;;;;4042854;29;20491;-37
2022/11/10 12:33:58;;;;;;;0.82;0.60;;;;;;;;;;4044988;29;20503;-37
2022/11/10 12:36:20;;;;;;;2.60;0.63;;;;;;;;;;4048726;29;20194;-41
2022/11/10 12:38:42;;;;;;;0.98;0.47;;;;;;;;;;4048572;29;20079;-37
2022/11/10 12:41:07;;;;;;;1.33;0.52;;;;;;;;;;4066004;29;20090;-38
2022/11/10 12:43:37;;;;;;;1.38;0.55;;;;;;;;;;4040921;29;20131;-39
2022/11/10 12:45:59;;;;;;;1.30;0.32;;;;;;;;;;4056216;29;20066;-38
2022/11/10 12:48:19;;;;;;;1.15;0.38;;;;;;;;;;4066200;29;20064;-39
2022/11/10 12:50:44;;;;;;;0.75;0.40;;;;;;;;;;4065179;29;20063;-38
2022/11/10 12:53:15;;;;;;;2.80;0.40;;;;;;;;;;4044668;29;21591;-39
2022/11/10 12:55:42;;;;;;;2.50;0.40;;;;;;;;;;4059754;29;20059;-39
2022/11/10 12:58:04;;;;;;;0.68;0.30;;;;;;;;;;4057930;29;20056;-38
2022/11/10 13:00:26;;;;;;;1.20;0.40;;;;;;;;;;4049333;29;20496;-37
2022/11/10 13:02:48;;;;;;;0.73;0.30;;;;;;;;;;4060195;29;20059;-37
2022/11/10 13:05:26;;;;;;;0.40;0.30;;;;;;;;;;4055008;29;20059;-37
2022/11/10 13:07:49;;;;;;;0.80;0.40;;;;;;;;;;4065814;29;20059;-36
2022/11/10 13:10:18;;;;;;;0.80;0.40;;;;;;;;;;4068111;29;20051;-38
2022/11/10 13:13:06;;;;;;;0.85;0.43;;;;;;;;;;4069678;29;20056;-36
2022/11/10 13:15:36;;;;;;;1.42;0.40;;;;;;;;;;4071533;29;20102;-36
2022/11/10 13:17:55;;;;;;;0.70;0.40;;;;;;;;;;4068093;29;20127;-36
2022/11/10 13:20:38;;;;;;;0.57;0.40;;;;;;;;;;4068693;29;20138;-38
2022/11/10 13:22:58;;;;;;;4.82;0.55;;;;;;;;;;4067941;29;20550;-37
2022/11/10 13:25:39;;;;;;;0.82;0.30;;;;;;;;;;4072612;29;20499;-37
2022/11/10 13:27:59;;;;;;;1.60;0.55;;;;;;;;;;4067574;29;20527;-36
2022/11/10 13:30:37;;;;;;;;;;;;;;;;;;4072953;29;20059;-37
2022/11/10 13:33:22;;;;;;;2.28;0.50;;;;;;;;;;4063709;29;19970;-39
2022/11/10 13:35:48;;;;;;;2.17;0.30;;;;;;;;;;4067151;29;20067;-37
2022/11/10 13:38:31;;;;;;;1.38;0.38;;;;;;;;;;4055646;29;20060;-37
2022/11/10 13:40:51;;;;;;;0.98;0.38;;;;;;;;;;4075704;29;20055;-37
2022/11/10 13:43:18;;;;;;;2.30;0.40;;;;;;;;;;4072954;29;20130;-38
2022/11/10 13:45:40;;;;;;;1.67;0.30;;;;;;;;;;4070566;29;20099;-37
2022/11/10 13:48:11;;;;;;;0.90;0.43;;;;;;;;;;4058797;29;20777;-37
2022/11/10 13:50:40;;;;;;;1.23;0.35;;;;;;;;;;4064002;29;20047;-36
2022/11/10 13:53:20;;;;;;;1.70;0.40;;;;;;;;;;4067694;29;20060;-38
2022/11/10 13:55:51;;;;;;;1.20;0.30;;;;;;;;;;4063658;29;20539;-36
2022/11/10 13:58:22;;;;;;;0.80;0.20;;;;;;;;;;4067720;29;20064;-37
2022/11/10 14:00:48;;;;;;;1.75;0.38;;;;;;;;;;4069297;29;20051;-35
2022/11/10 14:03:46;;;;;;;1.20;0.40;;;;;;;;;;4052252;29;20060;-36
2022/11/10 14:06:19;;;;;;;0.85;0.30;;;;;;;;;;4065520;29;20080;-37
2022/11/10 14:08:41;;;;;;;1.23;0.35;;;;;;;;;;4070784;29;21333;-37
2022/11/10 14:11:04;;;;;;;1.15;0.52;;;;;;;;;;4055347;29;20472;-38
2022/11/10 14:13:34;;;;;;;1.08;0.35;;;;;;;;;;4059578;29;25064;-38
2022/11/10 14:15:54;;;;;;;;;;;;;;;;;;4066018;29;20051;-36
2022/11/10 14:18:46;;;;;;;;;;;;;;;;;;4074735;29;19939;-36
2022/11/10 14:21:09;;;;;;;2.03;0.40;;;;;;;;;;4058852;29;19934;-36
2022/11/10 14:23:43;;;;;;;0.95;0.40;;;;;;;;;;4053074;29;20087;-36
2022/11/10 14:26:05;;;;;;;1.17;0.40;;;;;;;;;;4064503;29;20202;-37
2022/11/10 14:28:38;;;;;;;1.08;0.43;;;;;;;;;;4058910;29;20060;-36
2022/11/10 14:30:57;;;;;;;1.35;0.60;;;;;;;;;;4050709;29;20055;-36
2022/11/10 14:33:18;;;;;;;0.88;0.20;;;;;;;;;;4067776;29;20055;-37
2022/11/10 14:35:48;;;;;;;0.68;0.40;;;;;;;;;;4054793;29;20064;-38
2022/11/10 14:38:20;;;;;;;0.20;0.20;;;;;;;;;;4048133;29;20060;-36
2022/11/10 14:40:40;;;;;;;0.65;0.40;;;;;;;;;;4062191;29;20095;-35
2022/11/10 14:43:00;;;;;;;0.65;0.30;;;;;;;;;;4068711;29;20689;-37
2022/11/10 14:45:22;;;;;;;0.82;0.43;;;;;;;;;;4056750;29;20131;-41
2022/11/10 14:47:42;;;;;;;1.23;0.50;;;;;;;;;;4066335;29;20059;-36
2022/11/10 14:50:11;;;;;;;2.55;0.40;;;;;;;;;;4054554;29;20500;-36